createdAt,value
2018-12-27T00:00:34.622Z,52.75
2018-12-27T00:01:13.587Z,52.66
2018-12-27T00:02:13.584Z,52.75
2018-12-27T00:03:34.571Z,52.75
2018-12-27T00:04:13.565Z,52.75
2018-12-27T00:05:34.579Z,52.75
2018-12-27T00:06:13.546Z,52.56
2018-12-27T00:07:13.537Z,52.66
2018-12-27T00:08:34.532Z,52.85
2018-12-27T00:09:13.514Z,52.56
2018-12-27T00:10:34.506Z,52.27
2018-12-27T00:11:13.491Z,52.56
2018-12-27T00:12:13.486Z,52.27
2018-12-27T00:13:34.481Z,52.56
2018-12-27T00:14:13.470Z,52.56
2018-12-27T00:15:34.455Z,52.56
2018-12-27T00:16:13.441Z,52.56
2018-12-27T00:17:13.446Z,52.47
2018-12-27T00:18:34.424Z,52.56
2018-12-27T00:19:13.412Z,52.47
2018-12-27T00:20:34.398Z,52.47
2018-12-27T00:21:13.404Z,52.47
2018-12-27T00:22:13.380Z,52.27
2018-12-27T00:23:34.384Z,52.27
2018-12-27T00:24:13.359Z,52.27
2018-12-27T00:25:34.356Z,52.75
2018-12-27T00:26:13.343Z,52.27
2018-12-27T00:27:13.324Z,52.75
2018-12-27T00:28:34.323Z,52.56
2018-12-27T00:29:13.316Z,52.66
2018-12-27T00:30:34.316Z,52.56
2018-12-27T00:31:13.292Z,52.56
2018-12-27T00:32:13.279Z,52.75
2018-12-27T00:33:34.270Z,52.66
2018-12-27T00:34:13.266Z,52.75
2018-12-27T00:35:34.260Z,52.66
2018-12-27T00:36:13.244Z,52.56
2018-12-27T00:37:13.239Z,52.37
2018-12-27T00:38:34.236Z,52.66
2018-12-27T00:39:13.204Z,52.75
2018-12-27T00:40:34.206Z,52.27
2018-12-27T00:41:13.197Z,52.27
2018-12-27T00:42:13.181Z,52.47
2018-12-27T00:43:34.177Z,52.47
2018-12-27T00:44:13.157Z,52.56
2018-12-27T00:45:34.236Z,52.47
2018-12-27T00:46:13.138Z,52.56
2018-12-27T00:47:13.126Z,52.47
2018-12-27T00:48:34.135Z,52.47
2018-12-27T00:49:13.161Z,52.56
2018-12-27T00:50:34.112Z,52.47
2018-12-27T00:51:13.085Z,52.27
2018-12-27T00:52:13.097Z,52.47
2018-12-27T00:53:34.076Z,52.56
2018-12-27T00:54:13.064Z,52.37
2018-12-27T00:55:34.060Z,52.27
2018-12-27T00:56:13.051Z,52.47
2018-12-27T00:57:13.020Z,52.27
2018-12-27T00:58:34.021Z,52.56
2018-12-27T00:59:13.011Z,52.56
2018-12-27T01:00:34.007Z,52.66
2018-12-27T01:01:12.987Z,52.27
2018-12-27T01:02:12.975Z,52.56
2018-12-27T01:03:33.973Z,52.47
2018-12-27T01:04:12.953Z,52.66
2018-12-27T01:05:33.962Z,52.47
2018-12-27T01:06:12.938Z,52.47
2018-12-27T01:07:12.927Z,52.66
2018-12-27T01:08:33.932Z,52.66
2018-12-27T01:09:12.985Z,52.75
2018-12-27T01:10:33.894Z,52.47
2018-12-27T01:11:12.888Z,52.56
2018-12-27T01:12:12.883Z,52.75
2018-12-27T01:13:33.905Z,52.44
2018-12-27T01:14:12.861Z,52.75
2018-12-27T01:15:33.850Z,52.66
2018-12-27T01:16:12.844Z,52.66
2018-12-27T01:17:12.825Z,52.75
2018-12-27T01:18:33.815Z,52.56
2018-12-27T01:19:12.800Z,52.66
2018-12-27T01:20:33.804Z,52.37
2018-12-27T01:21:12.789Z,52.75
2018-12-27T01:22:12.777Z,52.63
2018-12-27T01:23:33.774Z,52.47
2018-12-27T01:24:12.745Z,52.66
2018-12-27T01:25:33.748Z,52.66
2018-12-27T01:26:12.736Z,52.85
2018-12-27T01:27:12.732Z,52.66
2018-12-27T01:28:33.718Z,52.37
2018-12-27T01:29:12.717Z,52.47
2018-12-27T01:30:33.689Z,52.34
2018-12-27T01:31:12.683Z,52.56
2018-12-27T01:32:12.683Z,52.47
2018-12-27T01:33:33.670Z,52.56
2018-12-27T01:34:12.648Z,52.54
2018-12-27T01:35:33.649Z,52.56
2018-12-27T01:36:12.637Z,52.47
2018-12-27T01:37:12.622Z,52.34
2018-12-27T01:38:33.616Z,52.54
2018-12-27T01:39:12.595Z,52.54
2018-12-27T01:40:33.596Z,52.75
2018-12-27T01:41:12.586Z,52.75
2018-12-27T01:42:12.571Z,52.85
2018-12-27T01:43:33.570Z,52.73
2018-12-27T01:44:12.559Z,52.54
2018-12-27T01:45:33.549Z,52.66
2018-12-27T01:46:12.533Z,52.54
2018-12-27T01:47:12.516Z,52.54
2018-12-27T01:48:33.512Z,52.54
2018-12-27T01:49:12.503Z,52.56
2018-12-27T01:50:33.494Z,52.47
2018-12-27T01:51:12.479Z,52.56
2018-12-27T01:52:12.472Z,52.44
2018-12-27T01:53:33.467Z,52.44
2018-12-27T01:54:12.466Z,52.44
2018-12-27T01:55:35.737Z,52.44
2018-12-27T01:56:12.434Z,52.47
2018-12-27T01:57:12.425Z,52.44
2018-12-27T01:58:33.404Z,52.56
2018-12-27T01:59:12.392Z,52.47
2018-12-27T02:00:33.395Z,52.25
2018-12-27T02:01:12.387Z,52.63
2018-12-27T02:02:12.363Z,52.73
2018-12-27T02:03:33.365Z,52.73
2018-12-27T02:04:12.352Z,52.54
2018-12-27T02:05:33.354Z,52.73
2018-12-27T02:06:12.321Z,52.54
2018-12-27T02:07:12.310Z,52.63
2018-12-27T02:08:33.311Z,52.66
2018-12-27T02:09:12.288Z,52.44
2018-12-27T02:10:33.290Z,52.54
2018-12-27T02:11:12.294Z,52.63
2018-12-27T02:12:12.276Z,52.85
2018-12-27T02:13:33.265Z,52.73
2018-12-27T02:14:12.252Z,52.54
2018-12-27T02:15:33.244Z,52.54
2018-12-27T02:16:12.227Z,52.44
2018-12-27T02:17:12.209Z,52.54
2018-12-27T02:18:33.200Z,52.44
2018-12-27T02:19:12.197Z,52.54
2018-12-27T02:20:33.189Z,52.63
2018-12-27T02:21:12.181Z,52.75
2018-12-27T02:22:12.197Z,52.66
2018-12-27T02:23:33.158Z,52.63
2018-12-27T02:24:12.134Z,52.25
2018-12-27T02:25:33.134Z,52.63
2018-12-27T02:26:12.112Z,52.83
2018-12-27T02:27:12.118Z,52.34
2018-12-27T02:28:33.105Z,52.44
2018-12-27T02:29:12.088Z,52.54
2018-12-27T02:30:33.095Z,52.54
2018-12-27T02:31:12.082Z,52.66
2018-12-27T02:32:12.065Z,52.44
2018-12-27T02:33:35.452Z,52.63
2018-12-27T02:34:12.037Z,52.54
2018-12-27T02:35:33.027Z,52.56
2018-12-27T02:36:12.016Z,52.54
2018-12-27T02:37:12.007Z,52.37
2018-12-27T02:38:33.005Z,52.34
2018-12-27T02:39:11.998Z,52.34
2018-12-27T02:40:32.984Z,52.34
2018-12-27T02:41:11.961Z,52.15
2018-12-27T02:42:11.959Z,52.25
2018-12-27T02:43:32.959Z,52.34
2018-12-27T02:44:11.939Z,52.06
2018-12-27T02:45:32.925Z,52.15
2018-12-27T02:46:11.923Z,52.34
2018-12-27T02:47:11.905Z,51.96
2018-12-27T02:48:32.898Z,52.37
2018-12-27T02:49:11.884Z,52.15
2018-12-27T02:50:32.885Z,52.06
2018-12-27T02:51:11.870Z,52.15
2018-12-27T02:52:11.863Z,52.15
2018-12-27T02:53:32.865Z,52.25
2018-12-27T02:54:11.836Z,51.96
2018-12-27T02:55:32.834Z,51.96
2018-12-27T02:56:11.808Z,52.15
2018-12-27T02:57:11.805Z,52.34
2018-12-27T02:58:32.801Z,52.15
2018-12-27T02:59:11.786Z,52.25
2018-12-27T03:00:32.789Z,52.34
2018-12-27T03:01:11.765Z,52.34
2018-12-27T03:02:11.763Z,52.25
2018-12-27T03:03:32.764Z,52.15
2018-12-27T03:04:11.738Z,52.15
2018-12-27T03:05:32.734Z,51.96
2018-12-27T03:06:11.713Z,52.15
2018-12-27T03:07:11.698Z,52.15
2018-12-27T03:08:32.723Z,51.96
2018-12-27T03:09:11.687Z,51.86
2018-12-27T03:10:32.690Z,52.44
2018-12-27T03:11:11.665Z,52.06
2018-12-27T03:12:11.652Z,51.86
2018-12-27T03:13:32.636Z,52.06
2018-12-27T03:14:11.633Z,52.15
2018-12-27T03:15:32.620Z,52.15
2018-12-27T03:16:11.620Z,52.15
2018-12-27T03:17:11.606Z,51.86
2018-12-27T03:18:32.603Z,52.34
2018-12-27T03:19:11.567Z,52.15
2018-12-27T03:20:32.571Z,52.15
2018-12-27T03:21:11.567Z,52.15
2018-12-27T03:22:11.548Z,52.15
2018-12-27T03:23:33.255Z,52.06
2018-12-27T03:24:11.527Z,52.54
2018-12-27T03:25:32.526Z,52.06
2018-12-27T03:26:11.519Z,52.34
2018-12-27T03:27:11.502Z,52.15
2018-12-27T03:28:32.500Z,52.34
2018-12-27T03:29:11.525Z,51.96
2018-12-27T03:30:32.475Z,52.06
2018-12-27T03:31:11.450Z,52.34
2018-12-27T03:32:11.445Z,52.34
2018-12-27T03:33:32.443Z,52.25
2018-12-27T03:34:11.423Z,52.34
2018-12-27T03:35:32.432Z,52.34
2018-12-27T03:36:11.404Z,51.96
2018-12-27T03:37:11.391Z,52.34
2018-12-27T03:38:32.400Z,52.34
2018-12-27T03:39:11.385Z,52.34
2018-12-27T03:40:32.362Z,52.25
2018-12-27T03:41:11.351Z,52.34
2018-12-27T03:42:11.335Z,52.25
2018-12-27T03:43:32.349Z,52.44
2018-12-27T03:44:11.318Z,51.96
2018-12-27T03:45:32.323Z,51.96
2018-12-27T03:46:11.294Z,52.34
2018-12-27T03:47:11.285Z,52.25
2018-12-27T03:48:32.296Z,52.34
2018-12-27T03:49:11.283Z,52.34
2018-12-27T03:50:32.270Z,52.34
2018-12-27T03:51:11.253Z,51.96
2018-12-27T03:52:11.246Z,52.34
2018-12-27T03:53:32.230Z,52.25
2018-12-27T03:54:11.218Z,52.25
2018-12-27T03:55:32.216Z,52.25
2018-12-27T03:56:11.200Z,52.34
2018-12-27T03:57:11.198Z,52.25
2018-12-27T03:58:32.192Z,52.34
2018-12-27T03:59:11.160Z,52.15
2018-12-27T04:00:32.155Z,51.96
2018-12-27T04:01:11.146Z,52.18
2018-12-27T04:02:11.144Z,51.96
2018-12-27T04:03:32.133Z,51.96
2018-12-27T04:04:11.130Z,52.06
2018-12-27T04:05:32.117Z,51.96
2018-12-27T04:06:11.110Z,52.15
2018-12-27T04:07:11.091Z,52.25
2018-12-27T04:08:32.089Z,52.34
2018-12-27T04:09:11.078Z,52.44
2018-12-27T04:10:32.062Z,51.98
2018-12-27T04:11:11.047Z,52.27
2018-12-27T04:12:11.036Z,51.96
2018-12-27T04:13:32.036Z,52.18
2018-12-27T04:14:11.026Z,52.15
2018-12-27T04:15:32.016Z,52.08
2018-12-27T04:16:10.989Z,51.96
2018-12-27T04:17:10.979Z,51.89
2018-12-27T04:18:31.982Z,52.08
2018-12-27T04:19:10.956Z,52.15
2018-12-27T04:20:31.958Z,52.08
2018-12-27T04:21:10.951Z,52.08
2018-12-27T04:22:10.935Z,52.08
2018-12-27T04:23:31.909Z,52.08
2018-12-27T04:24:10.924Z,52.08
2018-12-27T04:25:31.906Z,51.98
2018-12-27T04:26:10.901Z,52.08
2018-12-27T04:27:10.881Z,51.98
2018-12-27T04:28:31.883Z,51.98
2018-12-27T04:29:10.867Z,51.98
2018-12-27T04:30:31.855Z,51.96
2018-12-27T04:31:10.840Z,52.18
2018-12-27T04:32:10.840Z,51.98
2018-12-27T04:33:31.828Z,52.08
2018-12-27T04:34:13.252Z,52.15
2018-12-27T04:35:31.810Z,51.76
2018-12-27T04:36:10.792Z,52.06
2018-12-27T04:37:10.782Z,51.96
2018-12-27T04:38:31.792Z,51.98
2018-12-27T04:39:10.754Z,52.25
2018-12-27T04:40:31.753Z,52.44
2018-12-27T04:41:10.741Z,52.25
2018-12-27T04:42:10.729Z,52.15
2018-12-27T04:43:31.719Z,52.34
2018-12-27T04:44:10.714Z,52.15
2018-12-27T04:45:31.709Z,52.25
2018-12-27T04:46:10.698Z,52.15
2018-12-27T04:47:10.669Z,52.06
2018-12-27T04:48:31.676Z,52.06
2018-12-27T04:49:10.653Z,52.25
2018-12-27T04:50:31.718Z,52.15
2018-12-27T04:51:10.631Z,52.25
2018-12-27T04:52:10.635Z,52.15
2018-12-27T04:53:31.615Z,52.25
2018-12-27T04:54:10.606Z,52.25
2018-12-27T04:55:31.609Z,52.15
2018-12-27T04:56:10.586Z,52.25
2018-12-27T04:57:10.668Z,52.44
2018-12-27T04:58:31.577Z,52.25
2018-12-27T04:59:10.577Z,52.25
2018-12-27T05:00:32.852Z,52.15
2018-12-27T05:01:10.556Z,52.15
2018-12-27T05:02:10.553Z,51.81
2018-12-27T05:03:31.516Z,51.79
2018-12-27T05:04:17.832Z,52.14
2018-12-27T05:05:31.497Z,52.53
2018-12-27T05:06:10.487Z,53.08
2018-12-27T05:07:10.473Z,52.50
2018-12-27T05:08:31.562Z,52.31
2018-12-27T05:09:10.446Z,52.12
2018-12-27T05:10:31.441Z,52.34
2018-12-27T05:11:10.434Z,52.14
2018-12-27T05:12:10.413Z,52.14
2018-12-27T05:13:31.424Z,51.37
2018-12-27T05:14:10.391Z,51.18
2018-12-27T05:15:31.383Z,50.92
2018-12-27T05:16:10.376Z,50.82
2018-12-27T05:17:10.356Z,50.54
2018-12-27T05:18:31.357Z,50.34
2018-12-27T05:19:10.346Z,50.66
2018-12-27T05:20:31.352Z,50.18
2018-12-27T05:21:10.323Z,49.99
2018-12-27T05:22:10.320Z,50.18
2018-12-27T05:23:31.302Z,50.18
2018-12-27T05:24:10.290Z,50.27
2018-12-27T05:25:31.288Z,49.99
2018-12-27T05:26:10.259Z,49.53
2018-12-27T05:27:10.249Z,49.63
2018-12-27T05:28:31.246Z,49.72
2018-12-27T05:29:10.243Z,49.82
2018-12-27T05:30:31.214Z,49.72
2018-12-27T05:31:10.215Z,49.63
2018-12-27T05:32:10.192Z,49.53
2018-12-27T05:33:31.196Z,49.43
2018-12-27T05:34:10.171Z,49.82
2018-12-27T05:35:31.179Z,49.43
2018-12-27T05:36:10.152Z,49.82
2018-12-27T05:37:10.150Z,49.82
2018-12-27T05:38:31.138Z,49.82
2018-12-27T05:39:10.117Z,49.84
2018-12-27T05:40:31.129Z,49.84
2018-12-27T05:41:10.105Z,49.84
2018-12-27T05:42:10.096Z,49.74
2018-12-27T05:43:31.088Z,49.84
2018-12-27T05:44:10.074Z,49.74
2018-12-27T05:45:31.067Z,49.74
2018-12-27T05:46:10.052Z,49.74
2018-12-27T05:47:10.043Z,49.84
2018-12-27T05:48:31.029Z,49.84
2018-12-27T05:49:10.024Z,49.94
2018-12-27T05:50:31.020Z,49.65
2018-12-27T05:51:10.010Z,49.46
2018-12-27T05:52:09.987Z,49.46
2018-12-27T05:53:30.984Z,49.74
2018-12-27T05:54:09.967Z,49.74
2018-12-27T05:55:34.381Z,49.65
2018-12-27T05:56:09.950Z,49.46
2018-12-27T05:57:09.925Z,49.74
2018-12-27T05:58:30.935Z,49.74
2018-12-27T05:59:09.920Z,49.74
2018-12-27T06:00:30.909Z,49.65
2018-12-27T06:01:09.897Z,49.65
2018-12-27T06:02:09.876Z,49.84
2018-12-27T06:03:30.873Z,49.65
2018-12-27T06:04:09.856Z,49.74
2018-12-27T06:05:30.854Z,49.74
2018-12-27T06:06:09.847Z,49.65
2018-12-27T06:07:09.846Z,50.04
2018-12-27T06:08:30.822Z,50.13
2018-12-27T06:09:09.811Z,50.51
2018-12-27T06:10:30.809Z,50.61
2018-12-27T06:11:09.797Z,50.61
2018-12-27T06:12:09.772Z,50.61
2018-12-27T06:13:30.775Z,50.61
2018-12-27T06:14:09.763Z,50.32
2018-12-27T06:15:30.746Z,50.13
2018-12-27T06:16:09.734Z,50.51
2018-12-27T06:17:09.733Z,50.32
2018-12-27T06:18:30.727Z,50.32
2018-12-27T06:19:09.701Z,50.13
2018-12-27T06:20:30.699Z,50.04
2018-12-27T06:21:09.682Z,50.04
2018-12-27T06:22:09.671Z,50.13
2018-12-27T06:23:30.662Z,50.13
2018-12-27T06:24:09.651Z,50.13
2018-12-27T06:25:30.649Z,50.23
2018-12-27T06:26:09.641Z,50.13
2018-12-27T06:27:09.622Z,50.23
2018-12-27T06:28:30.624Z,50.42
2018-12-27T06:29:09.605Z,50.13
2018-12-27T06:30:30.596Z,50.13
2018-12-27T06:31:09.569Z,50.04
2018-12-27T06:32:09.564Z,50.42
2018-12-27T06:33:31.871Z,50.42
2018-12-27T06:34:09.555Z,50.42
2018-12-27T06:35:30.538Z,50.13
2018-12-27T06:36:09.530Z,50.32
2018-12-27T06:37:09.525Z,50.13
2018-12-27T06:38:30.516Z,50.42
2018-12-27T06:39:09.503Z,50.42
2018-12-27T06:40:30.495Z,50.23
2018-12-27T06:41:09.470Z,50.32
2018-12-27T06:42:09.465Z,50.23
2018-12-27T06:43:30.465Z,50.23
2018-12-27T06:44:09.439Z,50.42
2018-12-27T06:45:30.444Z,50.32
2018-12-27T06:46:09.420Z,50.23
2018-12-27T06:47:09.406Z,50.32
2018-12-27T06:48:30.419Z,50.51
2018-12-27T06:49:09.384Z,50.42
2018-12-27T06:50:30.386Z,50.42
2018-12-27T06:51:09.367Z,50.32
2018-12-27T06:52:09.363Z,50.32
2018-12-27T06:53:30.350Z,50.13
2018-12-27T06:54:09.343Z,50.32
2018-12-27T06:55:30.329Z,50.23
2018-12-27T06:56:09.330Z,50.61
2018-12-27T06:57:09.310Z,50.71
2018-12-27T06:58:37.556Z,50.71
2018-12-27T06:59:09.296Z,50.81
2018-12-27T07:00:30.280Z,50.81
2018-12-27T07:01:09.266Z,50.61
2018-12-27T07:02:09.258Z,50.42
2018-12-27T07:03:30.255Z,50.51
2018-12-27T07:04:09.233Z,50.42
2018-12-27T07:05:30.232Z,50.23
2018-12-27T07:06:09.212Z,50.23
2018-12-27T07:07:09.200Z,50.23
2018-12-27T07:08:30.254Z,50.61
2018-12-27T07:09:09.176Z,50.81
2018-12-27T07:10:30.178Z,50.71
2018-12-27T07:11:09.166Z,50.71
2018-12-27T07:12:09.156Z,50.71
2018-12-27T07:13:30.156Z,50.61
2018-12-27T07:14:09.148Z,50.61
2018-12-27T07:15:30.171Z,50.61
2018-12-27T07:16:09.113Z,50.81
2018-12-27T07:17:09.121Z,50.81
2018-12-27T07:18:30.101Z,50.81
2018-12-27T07:19:09.077Z,50.90
2018-12-27T07:20:30.073Z,50.81
2018-12-27T07:21:09.066Z,50.81
2018-12-27T07:22:09.046Z,50.81
2018-12-27T07:23:30.043Z,50.81
2018-12-27T07:24:09.028Z,50.81
2018-12-27T07:25:30.026Z,50.81
2018-12-27T07:26:09.011Z,50.81
2018-12-27T07:27:08.996Z,50.81
2018-12-27T07:28:30.005Z,50.81
2018-12-27T07:29:08.994Z,50.71
2018-12-27T07:30:31.938Z,50.90
2018-12-27T07:31:08.962Z,50.99
2018-12-27T07:32:08.948Z,50.71
2018-12-27T07:33:29.937Z,50.99
2018-12-27T07:34:08.940Z,50.90
2018-12-27T07:35:29.921Z,50.99
2018-12-27T07:36:08.905Z,50.99
2018-12-27T07:37:08.888Z,50.90
2018-12-27T07:38:32.494Z,50.81
2018-12-27T07:39:08.874Z,50.81
2018-12-27T07:40:29.864Z,50.90
2018-12-27T07:41:08.850Z,50.71
2018-12-27T07:42:08.839Z,50.81
2018-12-27T07:43:29.838Z,50.81
2018-12-27T07:44:08.841Z,50.81
2018-12-27T07:45:29.808Z,50.81
2018-12-27T07:46:11.048Z,50.90
2018-12-27T07:47:08.785Z,50.90
2018-12-27T07:48:29.793Z,50.81
2018-12-27T07:49:08.765Z,50.71
2018-12-27T07:50:29.765Z,50.61
2018-12-27T07:51:08.741Z,50.61
2018-12-27T07:52:08.729Z,50.71
2018-12-27T07:53:29.734Z,50.71
2018-12-27T07:54:08.722Z,50.51
2018-12-27T07:55:29.718Z,50.71
2018-12-27T07:56:08.699Z,50.51
2018-12-27T07:57:08.895Z,50.42
2018-12-27T07:58:29.677Z,50.90
2018-12-27T07:59:08.671Z,50.81
2018-12-27T08:00:29.653Z,50.61
2018-12-27T08:01:08.652Z,50.61
2018-12-27T08:02:08.635Z,50.61
2018-12-27T08:03:29.625Z,50.71
2018-12-27T08:04:08.610Z,50.54
2018-12-27T08:05:29.611Z,50.71
2018-12-27T08:06:08.597Z,50.51
2018-12-27T08:07:08.581Z,50.61
2018-12-27T08:08:29.583Z,50.71
2018-12-27T08:09:08.607Z,50.90
2018-12-27T08:10:29.565Z,50.61
2018-12-27T08:11:08.545Z,50.51
2018-12-27T08:12:08.532Z,50.71
2018-12-27T08:13:29.523Z,50.83
2018-12-27T08:14:08.505Z,50.81
2018-12-27T08:15:29.501Z,50.83
2018-12-27T08:16:08.492Z,50.81
2018-12-27T08:17:08.469Z,50.81
2018-12-27T08:18:29.475Z,50.71
2018-12-27T08:19:08.459Z,50.81
2018-12-27T08:20:29.461Z,50.71
2018-12-27T08:21:08.434Z,50.99
2018-12-27T08:22:08.434Z,50.90
2018-12-27T08:23:29.418Z,50.99
2018-12-27T08:24:08.407Z,50.99
2018-12-27T08:25:29.413Z,50.99
2018-12-27T08:26:08.386Z,50.81
2018-12-27T08:27:08.378Z,50.90
2018-12-27T08:28:29.369Z,51.38
2018-12-27T08:29:08.349Z,50.90
2018-12-27T08:30:29.366Z,51.38
2018-12-27T08:31:08.334Z,50.90
2018-12-27T08:32:08.324Z,51.38
2018-12-27T08:33:29.318Z,51.19
2018-12-27T08:34:08.303Z,51.48
2018-12-27T08:35:29.301Z,50.81
2018-12-27T08:36:08.281Z,50.90
2018-12-27T08:37:08.278Z,51.48
2018-12-27T08:38:29.267Z,51.19
2018-12-27T08:39:08.249Z,51.29
2018-12-27T08:40:29.253Z,51.29
2018-12-27T08:41:08.226Z,51.67
2018-12-27T08:42:08.218Z,51.19
2018-12-27T08:43:29.211Z,51.57
2018-12-27T08:44:08.201Z,50.90
2018-12-27T08:45:29.186Z,50.90
2018-12-27T08:46:08.173Z,50.90
2018-12-27T08:47:08.165Z,50.90
2018-12-27T08:48:29.168Z,50.90
2018-12-27T08:49:08.141Z,50.99
2018-12-27T08:50:29.143Z,50.99
2018-12-27T08:51:08.128Z,50.81
2018-12-27T08:52:08.120Z,50.81
2018-12-27T08:53:29.117Z,50.90
2018-12-27T08:54:08.087Z,50.90
2018-12-27T08:55:29.086Z,50.81
2018-12-27T08:56:08.077Z,50.81
2018-12-27T08:57:08.067Z,50.81
2018-12-27T08:58:29.059Z,50.81
2018-12-27T08:59:08.054Z,50.81
2018-12-27T09:00:29.045Z,50.30
2018-12-27T09:01:08.021Z,50.37
2018-12-27T09:02:08.015Z,50.85
2018-12-27T09:03:29.022Z,51.21
2018-12-27T09:04:08.015Z,51.21
2018-12-27T09:05:28.996Z,50.82
2018-12-27T09:06:09.024Z,50.54
2018-12-27T09:07:07.972Z,50.34
2018-12-27T09:08:28.970Z,50.82
2018-12-27T09:09:07.945Z,50.05
2018-12-27T09:10:28.934Z,50.37
2018-12-27T09:11:07.932Z,50.27
2018-12-27T09:12:07.914Z,50.18
2018-12-27T09:13:28.924Z,49.69
2018-12-27T09:14:07.892Z,49.51
2018-12-27T09:15:28.884Z,49.41
2018-12-27T09:16:07.868Z,49.79
2018-12-27T09:17:07.870Z,49.53
2018-12-27T09:18:28.861Z,49.43
2018-12-27T09:19:07.843Z,49.63
2018-12-27T09:20:28.832Z,49.72
2018-12-27T09:21:07.812Z,49.33
2018-12-27T09:22:07.807Z,49.33
2018-12-27T09:23:28.800Z,49.33
2018-12-27T09:24:07.789Z,49.05
2018-12-27T09:25:28.789Z,49.15
2018-12-27T09:26:07.837Z,49.15
2018-12-27T09:27:07.760Z,49.15
2018-12-27T09:28:28.748Z,49.24
2018-12-27T09:29:07.749Z,49.27
2018-12-27T09:30:28.726Z,49.36
2018-12-27T09:31:07.709Z,49.17
2018-12-27T09:32:07.703Z,49.27
2018-12-27T09:33:28.712Z,49.27
2018-12-27T09:34:07.700Z,49.27
2018-12-27T09:35:28.687Z,49.17
2018-12-27T09:36:07.665Z,48.97
2018-12-27T09:37:07.701Z,49.17
2018-12-27T09:38:28.654Z,49.17
2018-12-27T09:39:07.641Z,48.97
2018-12-27T09:40:28.627Z,49.17
2018-12-27T09:41:07.611Z,48.97
2018-12-27T09:42:07.598Z,49.17
2018-12-27T09:43:28.628Z,49.55
2018-12-27T09:44:07.572Z,49.36
2018-12-27T09:45:28.576Z,49.46
2018-12-27T09:46:07.546Z,49.27
2018-12-27T09:47:07.550Z,49.36
2018-12-27T09:48:28.537Z,49.36
2018-12-27T09:49:07.523Z,49.36
2018-12-27T09:50:28.507Z,49.46
2018-12-27T09:51:07.501Z,49.84
2018-12-27T09:52:07.516Z,49.74
2018-12-27T09:53:28.477Z,49.65
2018-12-27T09:54:07.451Z,49.65
2018-12-27T09:55:28.478Z,49.65
2018-12-27T09:56:07.456Z,49.46
2018-12-27T09:57:07.437Z,49.46
2018-12-27T09:58:28.449Z,49.55
2018-12-27T09:59:07.410Z,49.55
2018-12-27T10:00:28.414Z,49.55
2018-12-27T10:01:07.411Z,49.46
2018-12-27T10:02:07.389Z,49.55
2018-12-27T10:03:28.380Z,49.74
2018-12-27T10:04:07.363Z,49.74
2018-12-27T10:05:33.877Z,49.94
2018-12-27T10:06:07.342Z,49.84
2018-12-27T10:07:07.322Z,49.84
2018-12-27T10:08:28.318Z,49.65
2018-12-27T10:09:07.303Z,49.55
2018-12-27T10:10:28.305Z,49.74
2018-12-27T10:11:07.291Z,49.65
2018-12-27T10:12:07.280Z,49.84
2018-12-27T10:13:28.267Z,49.87
2018-12-27T10:14:07.254Z,49.94
2018-12-27T10:15:28.247Z,49.84
2018-12-27T10:16:07.226Z,49.74
2018-12-27T10:17:07.217Z,49.77
2018-12-27T10:18:28.215Z,49.68
2018-12-27T10:19:07.201Z,50.23
2018-12-27T10:20:28.201Z,50.04
2018-12-27T10:21:07.207Z,50.32
2018-12-27T10:22:07.165Z,50.63
2018-12-27T10:23:28.176Z,50.63
2018-12-27T10:24:07.159Z,50.63
2018-12-27T10:25:28.137Z,50.32
2018-12-27T10:26:08.460Z,50.32
2018-12-27T10:27:07.113Z,50.15
2018-12-27T10:28:28.137Z,50.32
2018-12-27T10:29:07.105Z,50.25
2018-12-27T10:30:28.102Z,50.23
2018-12-27T10:31:07.081Z,50.45
2018-12-27T10:32:07.074Z,50.13
2018-12-27T10:33:28.075Z,50.32
2018-12-27T10:34:07.049Z,50.42
2018-12-27T10:35:28.049Z,50.35
2018-12-27T10:36:07.038Z,50.35
2018-12-27T10:37:07.010Z,50.23
2018-12-27T10:38:28.012Z,50.32
2018-12-27T10:39:06.996Z,50.71
2018-12-27T10:40:27.995Z,50.63
2018-12-27T10:41:06.975Z,50.83
2018-12-27T10:42:06.965Z,50.83
2018-12-27T10:43:27.960Z,50.73
2018-12-27T10:44:06.955Z,50.83
2018-12-27T10:45:27.941Z,50.73
2018-12-27T10:46:06.930Z,50.73
2018-12-27T10:47:06.911Z,50.63
2018-12-27T10:48:27.910Z,50.63
2018-12-27T10:49:06.886Z,50.63
2018-12-27T10:50:27.900Z,50.45
2018-12-27T10:51:06.866Z,50.51
2018-12-27T10:52:06.853Z,50.45
2018-12-27T10:53:27.947Z,50.83
2018-12-27T10:54:06.843Z,50.93
2018-12-27T10:55:27.843Z,50.83
2018-12-27T10:56:06.806Z,50.83
2018-12-27T10:57:06.828Z,50.63
2018-12-27T10:58:27.824Z,50.71
2018-12-27T10:59:06.801Z,50.73
2018-12-27T11:00:27.803Z,50.83
2018-12-27T11:01:06.801Z,50.83
2018-12-27T11:02:06.786Z,50.71
2018-12-27T11:03:30.708Z,50.93
2018-12-27T11:04:06.759Z,51.02
2018-12-27T11:05:27.744Z,51.21
2018-12-27T11:06:06.722Z,51.50
2018-12-27T11:07:06.701Z,51.41
2018-12-27T11:08:27.710Z,51.21
2018-12-27T11:09:06.692Z,51.21
2018-12-27T11:10:27.688Z,51.31
2018-12-27T11:11:06.685Z,50.93
2018-12-27T11:12:06.655Z,51.29
2018-12-27T11:13:28.225Z,51.02
2018-12-27T11:14:06.645Z,51.21
2018-12-27T11:15:28.845Z,51.21
2018-12-27T11:16:06.618Z,51.31
2018-12-27T11:17:06.822Z,51.02
2018-12-27T11:18:28.664Z,51.02
2018-12-27T11:19:06.621Z,51.31
2018-12-27T11:20:30.003Z,51.21
2018-12-27T11:21:06.561Z,51.12
2018-12-27T11:22:06.558Z,51.12
2018-12-27T11:23:27.539Z,51.12
2018-12-27T11:24:06.528Z,51.19
2018-12-27T11:25:27.517Z,51.09
2018-12-27T11:26:06.501Z,51.02
2018-12-27T11:27:06.493Z,50.83
2018-12-27T11:28:27.494Z,50.83
2018-12-27T11:29:06.471Z,51.31
2018-12-27T11:30:27.470Z,51.21
2018-12-27T11:31:06.459Z,50.73
2018-12-27T11:32:06.446Z,50.99
2018-12-27T11:33:27.449Z,51.02
2018-12-27T11:34:06.416Z,50.99
2018-12-27T11:35:27.420Z,51.57
2018-12-27T11:36:06.395Z,51.48
2018-12-27T11:37:06.409Z,51.48
2018-12-27T11:38:27.383Z,51.48
2018-12-27T11:39:06.381Z,51.67
2018-12-27T11:40:27.361Z,51.29
2018-12-27T11:41:06.343Z,51.67
2018-12-27T11:42:06.340Z,51.67
2018-12-27T11:43:27.333Z,51.21
2018-12-27T11:44:06.312Z,51.19
2018-12-27T11:45:27.316Z,51.60
2018-12-27T11:46:06.295Z,51.19
2018-12-27T11:47:06.282Z,51.21
2018-12-27T11:48:27.289Z,51.41
2018-12-27T11:49:06.276Z,51.21
2018-12-27T11:50:27.262Z,51.19
2018-12-27T11:51:06.250Z,51.38
2018-12-27T11:52:06.234Z,51.19
2018-12-27T11:53:27.229Z,51.41
2018-12-27T11:54:06.208Z,51.57
2018-12-27T11:55:27.214Z,51.19
2018-12-27T11:56:06.201Z,51.50
2018-12-27T11:57:06.183Z,51.57
2018-12-27T11:58:27.192Z,51.48
2018-12-27T11:59:06.165Z,51.38
2018-12-27T12:00:27.152Z,51.38
2018-12-27T12:01:06.149Z,50.73
2018-12-27T12:02:06.199Z,51.48
2018-12-27T12:03:27.121Z,50.99
2018-12-27T12:04:06.110Z,50.99
2018-12-27T12:05:27.107Z,50.99
2018-12-27T12:06:06.090Z,50.99
2018-12-27T12:07:06.079Z,51.19
2018-12-27T12:08:27.084Z,51.19
2018-12-27T12:09:06.065Z,51.09
2018-12-27T12:10:27.059Z,50.99
2018-12-27T12:11:06.043Z,51.19
2018-12-27T12:12:06.023Z,50.99
2018-12-27T12:13:27.019Z,51.38
2018-12-27T12:14:06.020Z,51.09
2018-12-27T12:15:27.016Z,51.09
2018-12-27T12:16:05.979Z,51.09
2018-12-27T12:17:05.970Z,51.19
2018-12-27T12:18:26.970Z,51.19
2018-12-27T12:19:05.955Z,50.99
2018-12-27T12:20:26.962Z,50.99
2018-12-27T12:21:05.947Z,50.90
2018-12-27T12:22:05.926Z,50.99
2018-12-27T12:23:26.927Z,50.90
2018-12-27T12:24:05.900Z,50.99
2018-12-27T12:25:26.912Z,50.99
2018-12-27T12:26:05.880Z,50.90
2018-12-27T12:27:05.871Z,51.19
2018-12-27T12:28:26.880Z,51.38
2018-12-27T12:29:05.860Z,50.90
2018-12-27T12:30:26.849Z,50.81
2018-12-27T12:31:05.841Z,50.81
2018-12-27T12:32:05.838Z,50.81
2018-12-27T12:33:26.835Z,50.81
2018-12-27T12:34:05.810Z,50.99
2018-12-27T12:35:26.801Z,50.90
2018-12-27T12:36:10.624Z,51.57
2018-12-27T12:37:05.771Z,51.38
2018-12-27T12:38:26.775Z,51.38
2018-12-27T12:39:05.772Z,50.99
2018-12-27T12:40:26.749Z,51.09
2018-12-27T12:41:05.737Z,51.29
2018-12-27T12:42:05.736Z,51.29
2018-12-27T12:43:26.707Z,50.90
2018-12-27T12:44:05.695Z,51.02
2018-12-27T12:45:26.696Z,50.99
2018-12-27T12:46:05.674Z,51.19
2018-12-27T12:47:05.663Z,51.09
2018-12-27T12:48:26.663Z,51.19
2018-12-27T12:49:05.652Z,50.90
2018-12-27T12:50:26.649Z,50.99
2018-12-27T12:51:05.616Z,50.90
2018-12-27T12:52:05.611Z,51.41